createdAt,value
2018-08-28T00:01:39.503Z,22.00
2018-08-28T00:04:12.890Z,21.90
2018-08-28T00:06:46.262Z,21.80
2018-08-28T00:09:19.714Z,21.80
2018-08-28T00:11:53.090Z,21.70
2018-08-28T00:14:26.475Z,21.60
2018-08-28T00:16:59.860Z,21.60
2018-08-28T00:19:33.269Z,21.40
2018-08-28T00:22:06.652Z,21.50
2018-08-28T00:24:40.044Z,21.60
2018-08-28T00:27:13.431Z,21.50
2018-08-28T00:29:46.848Z,21.30
2018-08-28T00:32:20.254Z,21.20
2018-08-28T00:34:53.655Z,21.20
2018-08-28T00:37:27.027Z,21.10
2018-08-28T00:40:00.410Z,21.10
2018-08-28T00:42:33.792Z,21.20
2018-08-28T00:45:07.354Z,21.30
2018-08-28T00:47:40.722Z,21.40
2018-08-28T00:50:14.115Z,21.40
2018-08-28T00:52:47.482Z,21.50
2018-08-28T00:55:20.862Z,21.60
2018-08-28T00:57:54.337Z,21.70
2018-08-28T01:00:27.718Z,21.70
2018-08-28T01:03:01.255Z,21.60
2018-08-28T01:05:34.641Z,21.60
2018-08-28T01:08:08.038Z,21.60
2018-08-28T01:10:42.502Z,21.60
2018-08-28T01:13:15.906Z,21.50
2018-08-28T01:15:49.278Z,21.40
2018-08-28T01:18:22.670Z,21.40
2018-08-28T01:20:56.039Z,21.50
2018-08-28T01:23:29.425Z,21.60
2018-08-28T01:26:02.790Z,21.60
2018-08-28T01:28:36.187Z,21.60
2018-08-28T01:31:09.623Z,21.50
2018-08-28T01:33:43.034Z,21.50
2018-08-28T01:36:16.394Z,21.60
2018-08-28T01:38:49.778Z,21.50
2018-08-28T01:41:23.152Z,21.80
2018-08-28T01:43:56.542Z,21.90
2018-08-28T01:46:29.902Z,21.80
2018-08-28T01:49:03.291Z,21.70
2018-08-28T01:51:36.654Z,21.70
2018-08-28T01:54:10.035Z,21.70
2018-08-28T01:56:43.407Z,21.60
2018-08-28T01:59:16.791Z,21.50
2018-08-28T02:01:50.155Z,21.50
2018-08-28T02:04:23.550Z,21.40
2018-08-28T02:06:56.910Z,21.40
2018-08-28T02:09:30.306Z,21.40
2018-08-28T02:12:03.672Z,21.30
2018-08-28T02:14:37.070Z,21.20
2018-08-28T02:17:10.434Z,21.20
2018-08-28T02:19:43.831Z,21.10
2018-08-28T02:22:17.205Z,21.00
2018-08-28T02:24:50.586Z,20.90
2018-08-28T02:27:23.953Z,20.80
2018-08-28T02:29:57.334Z,20.90
2018-08-28T02:32:30.754Z,20.90
2018-08-28T02:35:04.238Z,20.90
2018-08-28T02:37:37.639Z,20.90
2018-08-28T02:40:11.075Z,20.80
2018-08-28T02:42:44.495Z,20.80
2018-08-28T02:45:17.939Z,20.80
2018-08-28T02:47:51.358Z,20.70
2018-08-28T02:50:24.842Z,20.60
2018-08-28T02:52:58.248Z,20.50
2018-08-28T02:55:31.677Z,20.60
2018-08-28T02:58:05.083Z,20.60
2018-08-28T03:00:38.503Z,20.40
2018-08-28T03:03:11.922Z,20.50
2018-08-28T03:05:45.359Z,20.50
2018-08-28T03:08:18.820Z,20.40
2018-08-28T03:10:52.244Z,20.40
2018-08-28T03:13:25.706Z,20.40
2018-08-28T03:15:59.191Z,20.40
2018-08-28T03:18:32.563Z,20.40
2018-08-28T03:21:05.994Z,20.40
2018-08-28T03:23:39.922Z,20.40
2018-08-28T03:26:13.454Z,20.20
2018-08-28T03:28:46.862Z,20.20
2018-08-28T03:31:20.282Z,20.20
2018-08-28T03:33:53.855Z,20.10
2018-08-28T03:36:27.288Z,20.00
2018-08-28T03:39:00.903Z,19.90
2018-08-28T03:41:34.330Z,19.90
2018-08-28T03:44:07.730Z,19.50
2018-08-28T03:46:41.139Z,19.20
2018-08-28T03:49:14.531Z,19.30
2018-08-28T03:51:47.936Z,19.40
2018-08-28T03:54:21.322Z,19.30
2018-08-28T03:56:54.757Z,19.30
2018-08-28T03:59:28.146Z,19.40
2018-08-28T04:02:01.546Z,19.30
2018-08-28T04:04:34.946Z,19.30
2018-08-28T04:07:08.360Z,19.30
2018-08-28T04:09:41.755Z,19.40
2018-08-28T04:12:15.158Z,19.40
2018-08-28T04:14:48.547Z,19.30
2018-08-28T04:17:21.966Z,19.40
2018-08-28T04:19:55.370Z,19.30
2018-08-28T04:22:28.827Z,19.30
2018-08-28T04:25:02.187Z,19.10
2018-08-28T04:27:35.591Z,19.10
2018-08-28T04:30:09.061Z,19.20
2018-08-28T04:32:42.491Z,19.20
2018-08-28T04:35:15.879Z,19.10
2018-08-28T04:37:49.282Z,19.20
2018-08-28T04:40:22.663Z,19.10
2018-08-28T04:42:56.077Z,19.20
2018-08-28T04:45:29.459Z,19.00
2018-08-28T04:48:02.903Z,18.70
2018-08-28T04:50:36.290Z,18.40
2018-08-28T04:53:09.699Z,18.60
2018-08-28T04:55:43.119Z,18.60
2018-08-28T04:58:16.630Z,18.60
2018-08-28T05:00:50.050Z,18.50
2018-08-28T05:03:23.450Z,18.60
2018-08-28T05:05:56.837Z,18.50
2018-08-28T05:08:30.246Z,18.60
2018-08-28T05:11:03.642Z,18.70
2018-08-28T05:13:37.046Z,18.70
2018-08-28T05:16:10.531Z,18.70
2018-08-28T05:18:43.942Z,18.60
2018-08-28T05:21:17.331Z,18.60
2018-08-28T05:23:50.747Z,18.70
2018-08-28T05:26:24.143Z,18.70
2018-08-28T05:28:57.563Z,19.40
2018-08-28T05:31:30.966Z,19.50
2018-08-28T05:34:04.411Z,19.20
2018-08-28T05:36:37.843Z,19.10
2018-08-28T05:39:11.286Z,19.00
2018-08-28T05:41:44.712Z,18.90
2018-08-28T05:44:18.954Z,18.90
2018-08-28T05:46:52.354Z,18.70
2018-08-28T05:49:25.831Z,18.60
2018-08-28T05:51:59.235Z,18.60
2018-08-28T05:54:32.655Z,18.70
2018-08-28T05:57:06.127Z,18.80
2018-08-28T05:59:39.563Z,19.00
2018-08-28T06:02:12.994Z,19.10
2018-08-28T06:04:46.414Z,19.10
2018-08-28T06:07:19.825Z,19.00
2018-08-28T06:09:53.247Z,19.10
2018-08-28T06:12:26.657Z,19.10
2018-08-28T06:15:00.215Z,19.10
2018-08-28T06:17:33.626Z,19.10
2018-08-28T06:20:07.195Z,19.20
2018-08-28T06:22:40.612Z,19.30
2018-08-28T06:25:14.042Z,19.40
2018-08-28T06:27:47.459Z,19.40
2018-08-28T06:30:20.914Z,19.20
2018-08-28T06:32:54.366Z,19.20
2018-08-28T06:35:27.786Z,19.30
2018-08-28T06:38:01.195Z,19.40
2018-08-28T06:40:34.629Z,19.40
2018-08-28T06:43:08.043Z,19.40
2018-08-28T06:45:41.492Z,19.50
2018-08-28T06:48:14.909Z,19.50
2018-08-28T06:50:48.355Z,19.60
2018-08-28T06:53:21.884Z,19.60
2018-08-28T06:55:55.311Z,19.60
2018-08-28T06:58:28.718Z,19.70
2018-08-28T07:01:02.267Z,19.70
2018-08-28T07:03:35.676Z,19.80
2018-08-28T07:06:09.106Z,19.80
2018-08-28T07:08:42.511Z,19.90
2018-08-28T07:11:15.991Z,19.90
2018-08-28T07:13:49.395Z,20.00
2018-08-28T07:16:22.852Z,20.00
2018-08-28T07:18:56.271Z,20.10
2018-08-28T07:21:29.699Z,20.20
2018-08-28T07:24:03.107Z,20.20
2018-08-28T07:26:36.534Z,20.20
2018-08-28T07:29:09.979Z,20.20
2018-08-28T07:31:43.511Z,20.20
2018-08-28T07:34:16.851Z,20.20
2018-08-28T07:36:50.287Z,20.20
2018-08-28T07:39:23.699Z,20.30
2018-08-28T07:41:57.126Z,20.50
2018-08-28T07:44:31.123Z,20.50
2018-08-28T07:47:04.577Z,20.50
2018-08-28T07:49:37.991Z,20.50
2018-08-28T07:52:11.450Z,20.60
2018-08-28T07:54:44.850Z,20.70
2018-08-28T07:57:18.290Z,20.70
2018-08-28T07:59:51.704Z,20.80
2018-08-28T08:02:25.479Z,20.90
2018-08-28T08:04:58.908Z,20.90
2018-08-28T08:07:32.334Z,21.00
2018-08-28T08:10:05.959Z,21.10
2018-08-28T08:12:39.432Z,21.20
2018-08-28T08:15:12.858Z,21.20
2018-08-28T08:17:46.297Z,21.30
2018-08-28T08:20:19.730Z,21.30
2018-08-28T08:22:53.170Z,21.30
2018-08-28T08:25:26.574Z,21.40
2018-08-28T08:28:00.070Z,21.40
2018-08-28T08:30:33.483Z,21.30
2018-08-28T08:33:07.118Z,21.40
2018-08-28T08:35:40.542Z,21.30
2018-08-28T08:38:14.286Z,21.40
2018-08-28T08:40:47.703Z,21.30
2018-08-28T08:43:21.175Z,21.30
2018-08-28T08:45:54.588Z,21.30
2018-08-28T08:48:28.017Z,21.30
2018-08-28T08:51:01.460Z,21.60
2018-08-28T08:53:34.887Z,21.70
2018-08-28T08:56:08.332Z,21.70
2018-08-28T08:58:41.839Z,21.60
2018-08-28T09:01:15.249Z,21.70
2018-08-28T09:03:48.705Z,21.80
2018-08-28T09:06:22.119Z,22.00
2018-08-28T09:08:55.578Z,22.10
2018-08-28T09:11:28.996Z,22.20
2018-08-28T09:14:02.426Z,22.30
2018-08-28T09:16:35.847Z,22.40
2018-08-28T09:19:09.291Z,22.50
2018-08-28T09:21:42.716Z,22.70
2018-08-28T09:24:16.159Z,22.30
2018-08-28T09:26:49.563Z,22.50
2018-08-28T09:29:23.020Z,22.60
2018-08-28T09:31:56.472Z,22.70
2018-08-28T09:34:29.914Z,22.80
2018-08-28T09:37:03.383Z,23.00
2018-08-28T09:39:36.795Z,23.00
2018-08-28T09:42:10.198Z,23.00
2018-08-28T09:44:43.610Z,23.00
2018-08-28T09:47:17.079Z,23.00
2018-08-28T09:49:50.513Z,23.00
2018-08-28T09:52:23.900Z,22.90
2018-08-28T09:54:57.315Z,22.90
2018-08-28T09:57:30.716Z,23.20
2018-08-28T10:00:04.203Z,23.30
2018-08-28T10:02:37.668Z,23.40
2018-08-28T10:05:11.091Z,23.50
2018-08-28T10:07:44.582Z,23.50
2018-08-28T10:10:18.054Z,23.60
2018-08-28T10:12:51.443Z,23.60
2018-08-28T10:15:24.886Z,23.80
2018-08-28T10:17:58.274Z,24.10
2018-08-28T10:20:31.687Z,24.10
2018-08-28T10:23:05.168Z,24.20
2018-08-28T10:25:38.580Z,24.00
2018-08-28T10:28:11.967Z,23.80
2018-08-28T10:30:45.402Z,24.00
2018-08-28T10:33:18.953Z,24.20
2018-08-28T10:35:52.394Z,24.20
2018-08-28T10:38:25.807Z,24.30
2018-08-28T10:40:59.282Z,24.40
2018-08-28T10:43:32.734Z,24.40
2018-08-28T10:46:06.374Z,24.30
2018-08-28T10:48:39.906Z,24.30
2018-08-28T10:51:13.559Z,24.30
2018-08-28T10:53:47.338Z,24.60
2018-08-28T10:56:20.796Z,24.70
2018-08-28T10:58:54.207Z,24.80
2018-08-28T11:01:27.650Z,24.80
2018-08-28T11:04:01.059Z,25.00
2018-08-28T11:06:34.486Z,25.10
2018-08-28T11:09:07.938Z,25.00
2018-08-28T11:11:41.523Z,24.90
2018-08-28T11:14:15.012Z,24.80
2018-08-28T11:16:48.438Z,25.00
2018-08-28T11:19:21.862Z,25.10
2018-08-28T11:21:55.431Z,25.00
2018-08-28T11:24:28.834Z,25.00
2018-08-28T11:27:02.267Z,25.10
2018-08-28T11:29:35.675Z,25.20
2018-08-28T11:32:09.116Z,25.20
2018-08-28T11:34:42.526Z,25.10
2018-08-28T11:37:16.144Z,25.10
2018-08-28T11:39:49.637Z,25.00
2018-08-28T11:42:23.039Z,25.10
2018-08-28T11:44:56.434Z,25.10
2018-08-28T11:47:29.840Z,25.20
2018-08-28T11:50:03.242Z,25.40
2018-08-28T11:52:36.842Z,25.40
2018-08-28T11:55:10.254Z,25.50
2018-08-28T11:57:43.798Z,25.30
2018-08-28T12:00:17.533Z,25.50
2018-08-28T12:02:51.064Z,25.70
2018-08-28T12:05:24.541Z,25.70
2018-08-28T12:07:58.051Z,25.60
2018-08-28T12:10:31.511Z,25.80
2018-08-28T12:13:05.000Z,25.80
2018-08-28T12:15:38.403Z,25.90
2018-08-28T12:18:11.849Z,25.90
2018-08-28T12:20:45.279Z,25.60
2018-08-28T12:23:18.709Z,25.70
2018-08-28T12:25:52.169Z,25.80
2018-08-28T12:28:25.593Z,25.90
2018-08-28T12:30:59.035Z,26.00
2018-08-28T12:33:32.479Z,26.00
2018-08-28T12:36:05.987Z,26.10
2018-08-28T12:38:39.399Z,26.40
2018-08-28T12:41:12.844Z,26.30
2018-08-28T12:43:46.276Z,26.30
2018-08-28T12:46:19.744Z,26.00
2018-08-28T12:48:53.168Z,26.10
2018-08-28T12:51:26.709Z,26.30
2018-08-28T12:54:00.059Z,26.30
2018-08-28T12:56:33.508Z,26.10
2018-08-28T12:59:06.959Z,25.80
2018-08-28T13:01:40.415Z,25.90
2018-08-28T13:04:13.836Z,26.00
2018-08-28T13:06:47.284Z,26.20
2018-08-28T13:09:20.700Z,26.20
2018-08-28T13:11:54.463Z,26.20
2018-08-28T13:14:28.022Z,26.30
2018-08-28T13:17:01.505Z,26.40
2018-08-28T13:19:34.938Z,26.10
2018-08-28T13:22:08.436Z,26.00
2018-08-28T13:24:41.864Z,26.00
2018-08-28T13:27:15.300Z,26.20
2018-08-28T13:29:48.752Z,26.40
2018-08-28T13:32:22.187Z,26.40
2018-08-28T13:34:55.664Z,26.60
2018-08-28T13:37:29.107Z,26.70
2018-08-28T13:40:02.539Z,26.70
2018-08-28T13:42:36.015Z,26.70
2018-08-28T13:45:09.528Z,26.60
2018-08-28T13:47:43.051Z,26.60
2018-08-28T13:50:16.537Z,26.60
2018-08-28T13:52:50.421Z,26.60
2018-08-28T13:55:23.999Z,26.60
2018-08-28T13:57:57.431Z,26.60
2018-08-28T14:00:30.883Z,26.50
2018-08-28T14:03:04.339Z,26.50
2018-08-28T14:05:37.904Z,26.70
2018-08-28T14:08:11.351Z,26.80
2018-08-28T14:10:44.911Z,26.60
2018-08-28T14:13:18.471Z,26.70
2018-08-28T14:15:51.880Z,26.70
2018-08-28T14:18:25.342Z,26.70
2018-08-28T14:20:58.811Z,26.80
2018-08-28T14:23:32.391Z,26.70
2018-08-28T14:26:05.996Z,26.80
2018-08-28T14:28:39.454Z,26.90
2018-08-28T14:31:12.899Z,27.00
2018-08-28T14:33:48.314Z,27.10
2018-08-28T14:36:21.788Z,27.10
2018-08-28T14:38:55.319Z,27.20
2018-08-28T14:41:28.762Z,27.30
2018-08-28T14:44:02.241Z,27.20
2018-08-28T14:46:35.747Z,27.30
2018-08-28T14:49:09.272Z,27.40
2018-08-28T14:51:43.736Z,27.20
2018-08-28T14:54:17.185Z,27.20
2018-08-28T14:56:50.686Z,27.20
2018-08-28T14:59:24.144Z,27.10
2018-08-28T15:01:57.600Z,27.00
2018-08-28T15:04:31.142Z,27.10
2018-08-28T15:07:04.741Z,27.10
2018-08-28T15:09:38.191Z,27.20
2018-08-28T15:12:11.616Z,27.00
2018-08-28T15:14:45.056Z,27.20
2018-08-28T15:17:18.482Z,27.30
2018-08-28T15:19:52.381Z,27.30
2018-08-28T15:22:25.431Z,27.30
2018-08-28T15:24:58.912Z,27.30
2018-08-28T15:27:32.355Z,27.30
2018-08-28T15:30:06.002Z,27.30
2018-08-28T15:32:39.539Z,27.30
2018-08-28T15:35:13.023Z,27.20
2018-08-28T15:37:46.439Z,27.10
2018-08-28T15:40:19.923Z,27.10
2018-08-28T15:42:53.585Z,27.20
2018-08-28T15:45:27.111Z,27.20
2018-08-28T15:48:00.555Z,27.10
2018-08-28T15:50:34.099Z,27.10
2018-08-28T15:53:07.748Z,27.00
2018-08-28T15:55:41.276Z,27.20
2018-08-28T15:58:14.842Z,27.20
2018-08-28T16:00:48.307Z,27.20
2018-08-28T16:03:21.818Z,27.10
2018-08-28T16:05:55.320Z,27.20
2018-08-28T16:08:28.782Z,27.00
2018-08-28T16:11:02.346Z,27.10
2018-08-28T16:13:36.811Z,27.00
2018-08-28T16:16:10.334Z,27.10
2018-08-28T16:18:43.890Z,27.10
2018-08-28T16:21:17.340Z,27.10
2018-08-28T16:23:50.887Z,27.20
2018-08-28T16:26:24.260Z,27.10
2018-08-28T16:28:57.720Z,27.10
2018-08-28T16:31:31.201Z,27.00
2018-08-28T16:34:05.211Z,27.10
2018-08-28T16:36:38.945Z,27.00
2018-08-28T16:39:12.463Z,27.00
2018-08-28T16:41:46.163Z,27.10
2018-08-28T16:44:19.615Z,27.10
2018-08-28T16:46:53.116Z,27.00
2018-08-28T16:49:26.592Z,27.00
2018-08-28T16:52:00.055Z,27.10
2018-08-28T16:54:33.522Z,26.90
2018-08-28T16:57:06.964Z,26.90
2018-08-28T16:59:40.480Z,27.00
2018-08-28T17:02:13.919Z,26.90
2018-08-28T17:04:47.393Z,26.80
2018-08-28T17:07:21.047Z,26.70
2018-08-28T17:09:54.508Z,26.70
2018-08-28T17:12:27.971Z,26.50
2018-08-28T17:15:01.433Z,26.50
2018-08-28T17:17:34.933Z,26.40
2018-08-28T17:20:08.482Z,26.50
2018-08-28T17:22:42.041Z,26.30
2018-08-28T17:25:15.519Z,26.30
2018-08-28T17:27:49.236Z,26.40
2018-08-28T17:30:22.720Z,26.30
2018-08-28T17:32:56.280Z,26.20
2018-08-28T17:35:29.717Z,26.00
2018-08-28T17:38:03.307Z,26.10
2018-08-28T17:40:36.795Z,25.90
2018-08-28T17:43:10.323Z,25.90
2018-08-28T17:45:43.889Z,25.80
2018-08-28T17:48:17.549Z,25.70
2018-08-28T17:50:50.967Z,25.70
2018-08-28T17:53:24.427Z,25.70
2018-08-28T17:55:57.892Z,25.70
2018-08-28T17:58:31.519Z,25.50
2018-08-28T18:01:05.203Z,25.50
2018-08-28T18:03:38.648Z,25.40
2018-08-28T18:06:12.107Z,25.20
2018-08-28T18:08:45.691Z,25.20
2018-08-28T18:11:19.236Z,25.10
2018-08-28T18:13:52.723Z,25.10
2018-08-28T18:16:26.309Z,25.00
2018-08-28T18:19:00.307Z,24.80
2018-08-28T18:21:33.851Z,24.70
2018-08-28T18:24:07.284Z,24.50
2018-08-28T18:26:40.720Z,24.50
2018-08-28T18:29:15.243Z,24.50
2018-08-28T18:31:48.663Z,24.50
2018-08-28T18:34:22.247Z,24.50
2018-08-28T18:36:55.657Z,24.60
2018-08-28T18:39:29.091Z,24.60
2018-08-28T18:42:02.830Z,24.70
2018-08-28T18:44:36.312Z,24.80
2018-08-28T18:47:09.811Z,24.90
2018-08-28T18:49:43.262Z,24.90
2018-08-28T18:52:16.763Z,24.70
2018-08-28T18:54:50.195Z,24.70
2018-08-28T18:57:23.719Z,24.80
2018-08-28T18:59:57.189Z,24.90
2018-08-28T19:02:30.623Z,24.60
2018-08-28T19:05:04.224Z,24.50
2018-08-28T19:07:37.723Z,24.30
2018-08-28T19:10:11.255Z,24.40
2018-08-28T19:12:44.766Z,24.40
2018-08-28T19:15:18.248Z,24.40
2018-08-28T19:17:51.702Z,24.50
2018-08-28T19:20:25.216Z,24.60
2018-08-28T19:22:58.631Z,24.60
2018-08-28T19:25:32.124Z,24.60
2018-08-28T19:28:05.552Z,24.70
2018-08-28T19:30:39.010Z,24.70
2018-08-28T19:33:12.491Z,24.70
2018-08-28T19:35:46.973Z,24.30
2018-08-28T19:38:20.416Z,24.50
2018-08-28T19:40:54.023Z,24.20
2018-08-28T19:43:27.488Z,24.00
2018-08-28T19:46:00.932Z,24.10
2018-08-28T19:48:34.363Z,24.10
2018-08-28T19:51:07.864Z,24.10
2018-08-28T19:53:41.414Z,24.00
2018-08-28T19:56:14.785Z,24.00
2018-08-28T19:58:48.280Z,24.00
2018-08-28T20:01:21.771Z,23.90
2018-08-28T20:03:55.239Z,24.00
2018-08-28T20:06:28.735Z,24.00
2018-08-28T20:09:02.230Z,23.90
2018-08-28T20:11:35.648Z,24.00
2018-08-28T20:14:09.380Z,23.90
2018-08-28T20:16:42.868Z,23.90
2018-08-28T20:19:16.311Z,23.60
2018-08-28T20:21:49.746Z,23.50
2018-08-28T20:24:23.253Z,23.50
2018-08-28T20:26:56.686Z,23.60
2018-08-28T20:29:30.219Z,23.60
2018-08-28T20:32:03.738Z,23.70
2018-08-28T20:34:37.192Z,23.70
2018-08-28T20:37:10.676Z,23.70
2018-08-28T20:39:44.141Z,23.70
2018-08-28T20:42:17.631Z,23.50
2018-08-28T20:44:51.248Z,23.50
2018-08-28T20:47:24.677Z,23.50
2018-08-28T20:49:58.116Z,23.30
2018-08-28T20:52:31.563Z,23.20
2018-08-28T20:55:05.259Z,23.30
2018-08-28T20:57:39.352Z,23.10
2018-08-28T21:00:12.828Z,23.20
2018-08-28T21:02:46.303Z,23.20
2018-08-28T21:05:24.938Z,23.20
2018-08-28T21:08:00.028Z,23.10
2018-08-28T21:10:33.485Z,22.90
2018-08-28T21:13:06.948Z,23.00
2018-08-28T21:15:40.359Z,23.00
2018-08-28T21:18:13.809Z,23.00
2018-08-28T21:20:47.251Z,22.90
2018-08-28T21:23:20.699Z,22.90
2018-08-28T21:25:54.136Z,22.90
2018-08-28T21:28:27.548Z,22.90
2018-08-28T21:31:00.978Z,22.80
2018-08-28T21:33:35.228Z,22.60
2018-08-28T21:36:08.683Z,22.40
2018-08-28T21:38:42.108Z,22.30
2018-08-28T21:41:15.535Z,22.30
2018-08-28T21:43:49.049Z,22.20
2018-08-28T21:46:22.495Z,22.20
2018-08-28T21:48:55.916Z,22.20
2018-08-28T21:51:29.349Z,22.30
2018-08-28T21:54:02.792Z,22.10
2018-08-28T21:56:36.247Z,22.00
2018-08-28T21:59:09.678Z,21.90
2018-08-28T22:01:43.127Z,22.00
2018-08-28T22:04:16.539Z,21.90
2018-08-28T22:06:55.298Z,21.90
2018-08-28T22:09:28.696Z,21.80
2018-08-28T22:12:02.168Z,21.70
2018-08-28T22:14:35.597Z,21.80
2018-08-28T22:17:09.106Z,21.60
2018-08-28T22:19:42.523Z,21.50
2018-08-28T22:22:15.918Z,21.00
2018-08-28T22:24:49.296Z,21.00
2018-08-28T22:27:22.712Z,20.90
2018-08-28T22:29:56.102Z,20.90
2018-08-28T22:32:29.503Z,21.00
2018-08-28T22:35:02.906Z,21.00
2018-08-28T22:37:36.416Z,20.90
2018-08-28T22:40:11.471Z,20.90
2018-08-28T22:42:44.858Z,20.80
2018-08-28T22:45:18.237Z,20.80
2018-08-28T22:47:51.635Z,20.70
2018-08-28T22:50:25.025Z,20.60
2018-08-28T22:52:58.520Z,20.40
2018-08-28T22:55:32.033Z,20.60
2018-08-28T22:58:05.552Z,20.60
2018-08-28T23:00:38.929Z,20.60
2018-08-28T23:03:12.372Z,20.70
2018-08-28T23:05:45.749Z,20.70
2018-08-28T23:08:19.203Z,20.70
2018-08-28T23:10:52.593Z,20.80
2018-08-28T23:13:25.979Z,20.90
2018-08-28T23:15:59.360Z,20.90
2018-08-28T23:18:32.758Z,20.90
2018-08-28T23:21:06.163Z,20.90
2018-08-28T23:23:39.565Z,20.60
2018-08-28T23:26:12.934Z,20.60
2018-08-28T23:28:46.403Z,20.80
2018-08-28T23:31:19.783Z,20.80
2018-08-28T23:33:53.187Z,20.80
2018-08-28T23:36:26.583Z,20.70
2018-08-28T23:38:59.979Z,20.70
2018-08-28T23:41:33.399Z,20.70
2018-08-28T23:44:06.819Z,20.70
2018-08-28T23:46:40.239Z,20.80
2018-08-28T23:49:13.686Z,20.80
2018-08-28T23:51:47.071Z,20.80
2018-08-28T23:54:20.459Z,20.70
2018-08-28T23:56:53.832Z,20.70
2018-08-28T23:59:27.236Z,20.70
